createdAt,value
2019-03-08T00:02:18.480Z,3.10
2019-03-08T00:04:50.540Z,3.06
2019-03-08T00:07:21.275Z,2.97
2019-03-08T00:09:51.703Z,3.03
2019-03-08T00:12:21.937Z,3.18
2019-03-08T00:14:52.363Z,3.05
2019-03-08T00:17:24.211Z,3.11
2019-03-08T00:19:54.739Z,2.99
2019-03-08T00:22:25.275Z,2.90
2019-03-08T00:24:55.897Z,2.80
2019-03-08T00:27:26.023Z,2.82
2019-03-08T00:29:56.451Z,2.82
2019-03-08T00:32:28.202Z,2.77
2019-03-08T00:34:58.522Z,2.84
2019-03-08T00:37:29.053Z,2.81
2019-03-08T00:39:59.477Z,2.81
2019-03-08T00:42:31.167Z,2.92
2019-03-08T00:45:01.764Z,2.92
2019-03-08T00:47:32.195Z,2.95
2019-03-08T00:50:03.567Z,2.95
2019-03-08T00:52:34.655Z,2.88
2019-03-08T00:55:06.919Z,2.95
2019-03-08T00:57:37.272Z,3.07
2019-03-08T01:00:09.441Z,2.93
2019-03-08T01:02:41.669Z,2.98
2019-03-08T01:05:12.137Z,2.90
2019-03-08T01:07:42.870Z,2.82
2019-03-08T01:10:23.086Z,2.77
2019-03-08T01:12:53.346Z,2.87
2019-03-08T01:15:23.874Z,2.78
2019-03-08T01:17:59.273Z,2.90
2019-03-08T01:20:28.310Z,3.01
2019-03-08T01:22:58.531Z,2.93
2019-03-08T01:25:28.935Z,3.23
2019-03-08T01:28:00.307Z,3.02
2019-03-08T01:30:31.049Z,2.99
2019-03-08T01:33:01.364Z,3.11
2019-03-08T01:35:31.992Z,3.08
2019-03-08T01:38:03.214Z,3.01
2019-03-08T01:40:33.768Z,3.09
2019-03-08T01:43:06.320Z,2.93
2019-03-08T01:45:38.692Z,2.82
2019-03-08T01:48:11.277Z,2.88
2019-03-08T01:50:42.032Z,2.92
2019-03-08T01:53:12.482Z,2.81
2019-03-08T01:55:42.982Z,2.67
2019-03-08T01:58:13.407Z,2.58
2019-03-08T02:00:44.755Z,2.63
2019-03-08T02:03:17.124Z,2.63
2019-03-08T02:05:47.555Z,2.57
2019-03-08T02:08:17.978Z,2.77
2019-03-08T02:10:50.283Z,2.70
2019-03-08T02:13:20.571Z,2.75
2019-03-08T02:15:51.066Z,2.67
2019-03-08T02:18:21.629Z,2.74
2019-03-08T02:20:52.400Z,2.82
2019-03-08T02:23:25.541Z,2.69
2019-03-08T02:25:55.942Z,2.73
2019-03-08T02:28:26.609Z,2.83
2019-03-08T02:30:57.035Z,3.03
2019-03-08T02:33:27.259Z,3.10
2019-03-08T02:35:57.479Z,3.39
2019-03-08T02:38:28.284Z,3.41
2019-03-08T02:40:58.744Z,3.43
2019-03-08T02:43:28.966Z,3.06
2019-03-08T02:45:59.362Z,2.99
2019-03-08T02:48:30.866Z,3.08
2019-03-08T02:51:01.894Z,3.25
2019-03-08T02:53:32.169Z,3.27
2019-03-08T02:56:02.937Z,3.33
2019-03-08T02:58:33.159Z,3.22
2019-03-08T03:01:04.269Z,3.18
2019-03-08T03:03:34.828Z,3.53
2019-03-08T03:06:05.355Z,3.81
2019-03-08T03:08:35.681Z,3.55
2019-03-08T03:11:06.210Z,3.56
2019-03-08T03:13:36.735Z,3.54
2019-03-08T03:16:07.269Z,3.60
2019-03-08T03:18:37.794Z,3.18
2019-03-08T03:21:08.425Z,3.56
2019-03-08T03:23:38.646Z,3.42
2019-03-08T03:26:10.985Z,3.66
2019-03-08T03:28:41.238Z,3.72
2019-03-08T03:31:11.667Z,3.74
2019-03-08T03:33:42.694Z,3.89
2019-03-08T03:36:13.440Z,4.10
2019-03-08T03:38:43.967Z,4.02
2019-03-08T03:41:16.616Z,3.97
2019-03-08T03:43:46.867Z,3.97
2019-03-08T03:46:18.773Z,4.06
2019-03-08T03:48:49.357Z,4.12
2019-03-08T03:51:19.965Z,4.09
2019-03-08T03:53:52.199Z,4.18
2019-03-08T03:56:22.788Z,4.13
2019-03-08T03:58:53.219Z,4.29
2019-03-08T04:01:26.278Z,4.32
2019-03-08T04:03:58.319Z,4.52
2019-03-08T04:06:28.899Z,4.31
2019-03-08T04:08:59.322Z,4.02
2019-03-08T04:11:29.858Z,4.09
2019-03-08T04:14:00.274Z,4.00
2019-03-08T04:16:31.009Z,4.16
2019-03-08T04:19:01.332Z,4.19
2019-03-08T04:21:31.859Z,4.24
2019-03-08T04:24:02.492Z,4.38
2019-03-08T04:26:33.089Z,4.39
2019-03-08T04:29:03.754Z,4.50
2019-03-08T04:31:34.388Z,4.46
2019-03-08T04:34:06.773Z,4.51
2019-03-08T04:36:37.387Z,4.10
2019-03-08T04:39:07.693Z,4.63
2019-03-08T04:41:38.136Z,4.43
2019-03-08T04:44:10.640Z,4.64
2019-03-08T04:46:42.371Z,4.66
2019-03-08T04:49:12.799Z,4.87
2019-03-08T04:51:45.318Z,4.70
2019-03-08T04:54:21.197Z,5.02
2019-03-08T04:56:54.413Z,4.65
2019-03-08T04:59:24.811Z,4.44
2019-03-08T05:01:55.372Z,4.55
2019-03-08T05:04:26.517Z,4.35
2019-03-08T05:06:57.144Z,4.51
2019-03-08T05:09:28.766Z,4.44
2019-03-08T05:12:03.922Z,4.65
2019-03-08T05:14:33.614Z,4.75
2019-03-08T05:17:04.277Z,4.87
2019-03-08T05:19:34.906Z,4.84
2019-03-08T05:22:08.097Z,5.04
2019-03-08T05:24:39.443Z,4.78
2019-03-08T05:27:09.872Z,4.65
2019-03-08T05:29:40.505Z,5.02
2019-03-08T05:32:11.240Z,5.00
2019-03-08T05:34:41.764Z,5.04
2019-03-08T05:37:13.771Z,5.13
2019-03-08T05:39:44.252Z,5.30
2019-03-08T05:42:14.783Z,4.97
2019-03-08T05:44:47.637Z,4.99
2019-03-08T05:47:20.960Z,5.36
2019-03-08T05:49:52.516Z,5.12
2019-03-08T05:52:23.118Z,4.95
2019-03-08T05:54:55.476Z,5.28
2019-03-08T05:57:25.837Z,5.25
2019-03-08T05:59:56.266Z,5.21
2019-03-08T06:02:27.202Z,5.25
2019-03-08T06:04:57.628Z,5.14
2019-03-08T06:07:28.058Z,5.33
2019-03-08T06:09:58.791Z,5.37
2019-03-08T06:12:29.629Z,5.38
2019-03-08T06:15:05.740Z,5.69
2019-03-08T06:17:35.982Z,5.32
2019-03-08T06:20:12.812Z,5.84
2019-03-08T06:22:44.130Z,5.50
2019-03-08T06:25:20.391Z,5.64
2019-03-08T06:27:55.132Z,5.26
2019-03-08T06:30:28.926Z,5.33
2019-03-08T06:33:02.745Z,5.34
2019-03-08T06:35:35.073Z,5.57
2019-03-08T06:38:07.685Z,5.74
2019-03-08T06:40:40.357Z,5.37
2019-03-08T06:43:11.780Z,5.67
2019-03-08T06:45:42.949Z,5.84
2019-03-08T06:48:13.213Z,5.93
2019-03-08T06:50:43.801Z,5.74
2019-03-08T06:53:15.047Z,5.93
2019-03-08T06:55:47.432Z,6.08
2019-03-08T06:58:19.693Z,6.17
2019-03-08T07:00:52.089Z,6.44
2019-03-08T07:03:23.627Z,6.42
2019-03-08T07:05:54.144Z,6.71
2019-03-08T07:08:25.045Z,6.77
2019-03-08T07:10:55.609Z,6.69
2019-03-08T07:13:28.051Z,6.72
2019-03-08T07:15:58.512Z,6.55
2019-03-08T07:18:29.046Z,6.73
2019-03-08T07:21:03.984Z,6.15
2019-03-08T07:23:42.594Z,6.42
2019-03-08T07:26:26.272Z,6.45
2019-03-08T07:29:18.251Z,6.87
2019-03-08T07:32:00.559Z,6.73
2019-03-08T07:34:35.871Z,6.90
2019-03-08T07:37:20.049Z,7.01
2019-03-08T07:39:52.477Z,7.31
2019-03-08T07:42:27.884Z,7.14
2019-03-08T07:45:03.186Z,7.24
2019-03-08T07:47:51.964Z,7.11
2019-03-08T07:50:39.177Z,7.83
2019-03-08T07:53:14.726Z,8.08
2019-03-08T07:55:47.096Z,8.20
2019-03-08T07:58:21.618Z,8.16
2019-03-08T08:01:10.169Z,8.05
2019-03-08T08:04:02.409Z,8.08
2019-03-08T08:06:37.972Z,7.98
2019-03-08T08:09:20.460Z,8.09
2019-03-08T08:12:09.640Z,7.67
2019-03-08T08:14:47.740Z,7.88
2019-03-08T08:17:20.046Z,8.03
2019-03-08T08:20:01.295Z,8.03
2019-03-08T08:22:48.713Z,8.01
2019-03-08T08:25:39.955Z,8.11
2019-03-08T08:28:21.538Z,8.26
2019-03-08T08:31:06.138Z,8.51
2019-03-08T08:33:38.566Z,8.77
2019-03-08T08:36:17.573Z,8.96
2019-03-08T08:38:50.056Z,9.31
2019-03-08T08:41:22.115Z,9.30
2019-03-08T08:44:11.175Z,9.60
2019-03-08T08:47:00.245Z,9.76
2019-03-08T08:49:35.381Z,9.98
2019-03-08T08:52:16.726Z,10.16
2019-03-08T08:54:51.891Z,10.25
2019-03-08T08:57:37.071Z,10.38
2019-03-08T09:00:22.030Z,10.43
2019-03-08T09:03:11.060Z,10.72
2019-03-08T09:05:46.024Z,10.79
2019-03-08T09:08:23.801Z,10.83
2019-03-08T09:11:05.210Z,10.87
2019-03-08T09:13:42.340Z,11.10
2019-03-08T09:16:18.216Z,11.27
2019-03-08T09:18:56.554Z,11.43
2019-03-08T09:21:37.635Z,11.50
2019-03-08T09:24:16.351Z,11.53
2019-03-08T09:26:54.879Z,11.82
2019-03-08T09:29:28.131Z,12.02
2019-03-08T09:32:03.601Z,12.03
2019-03-08T09:34:35.584Z,12.05
2019-03-08T09:37:24.321Z,12.32
2019-03-08T09:39:59.260Z,12.35
2019-03-08T09:42:32.367Z,12.54
2019-03-08T09:45:20.586Z,12.60
2019-03-08T09:48:01.868Z,12.87
2019-03-08T09:50:34.135Z,13.11
2019-03-08T09:53:25.349Z,12.94
2019-03-08T09:56:11.192Z,13.17
2019-03-08T09:59:03.228Z,12.92
2019-03-08T10:01:52.965Z,12.99
2019-03-08T10:04:29.091Z,12.86
2019-03-08T10:07:09.680Z,12.88
2019-03-08T10:09:48.995Z,13.15
2019-03-08T10:12:21.689Z,13.20
2019-03-08T10:14:58.332Z,13.48
2019-03-08T10:17:42.302Z,14.12
2019-03-08T10:20:17.976Z,14.14
2019-03-08T10:22:50.117Z,14.27
2019-03-08T10:25:35.946Z,14.14
2019-03-08T10:28:08.259Z,14.17
2019-03-08T10:30:41.806Z,14.08
2019-03-08T10:33:17.016Z,14.07
2019-03-08T10:35:49.281Z,14.29
2019-03-08T10:38:24.306Z,14.02
2019-03-08T10:40:59.666Z,14.11
2019-03-08T10:43:32.130Z,13.98
2019-03-08T10:46:15.895Z,14.26
2019-03-08T10:48:48.201Z,14.32
2019-03-08T10:51:21.648Z,14.72
2019-03-08T10:54:00.535Z,14.55
2019-03-08T10:56:31.116Z,14.67
2019-03-08T10:59:15.751Z,14.75
2019-03-08T11:01:57.402Z,14.82
2019-03-08T11:04:32.678Z,14.86
2019-03-08T11:07:17.456Z,14.76
2019-03-08T11:09:56.572Z,14.53
2019-03-08T11:12:32.016Z,14.48
2019-03-08T11:15:24.203Z,14.31
2019-03-08T11:17:56.019Z,14.38
2019-03-08T11:20:29.819Z,14.27
2019-03-08T11:23:08.748Z,14.26
2019-03-08T11:25:58.942Z,14.55
2019-03-08T11:28:31.512Z,14.51
2019-03-08T11:31:07.057Z,14.43
2019-03-08T11:33:51.320Z,14.54
2019-03-08T11:36:23.784Z,14.99
2019-03-08T11:38:57.188Z,15.14
2019-03-08T11:41:35.483Z,15.49
2019-03-08T11:44:24.367Z,15.24
2019-03-08T11:46:56.608Z,15.05
2019-03-08T11:49:36.528Z,15.04
2019-03-08T11:52:15.278Z,15.21
2019-03-08T11:54:48.676Z,15.32
2019-03-08T11:57:20.844Z,15.06
2019-03-08T11:59:56.101Z,15.23
2019-03-08T12:02:37.573Z,15.09
2019-03-08T12:05:10.758Z,14.57
2019-03-08T12:07:43.856Z,14.46
2019-03-08T12:10:32.747Z,14.46
2019-03-08T12:13:08.253Z,14.61
2019-03-08T12:15:55.883Z,14.73
2019-03-08T12:18:28.148Z,14.48
2019-03-08T12:21:11.486Z,14.70
2019-03-08T12:23:52.451Z,14.58
2019-03-08T12:26:36.707Z,14.62
2019-03-08T12:29:11.940Z,14.75
2019-03-08T12:31:47.282Z,14.37
2019-03-08T12:34:28.461Z,14.73
2019-03-08T12:37:03.595Z,14.71
2019-03-08T12:39:38.324Z,15.01
2019-03-08T12:42:13.151Z,15.01
2019-03-08T12:44:58.433Z,14.74
2019-03-08T12:47:42.683Z,14.66
2019-03-08T12:50:27.234Z,14.50
2019-03-08T12:52:59.830Z,14.47
2019-03-08T12:55:34.646Z,14.25
2019-03-08T12:58:06.707Z,14.29
2019-03-08T13:00:39.169Z,14.33
2019-03-08T13:03:14.215Z,14.43
2019-03-08T13:05:46.277Z,14.20
2019-03-08T13:08:22.159Z,14.29
2019-03-08T13:10:52.840Z,14.46
2019-03-08T13:13:23.268Z,14.45
2019-03-08T13:15:53.826Z,14.59
2019-03-08T13:18:24.562Z,14.51
2019-03-08T13:20:55.286Z,14.58
2019-03-08T13:23:25.581Z,14.63
2019-03-08T13:25:56.344Z,14.58
2019-03-08T13:28:26.770Z,14.67
2019-03-08T13:30:57.195Z,14.86
2019-03-08T13:33:27.930Z,14.94
2019-03-08T13:35:58.457Z,14.87
2019-03-08T13:38:28.989Z,14.92
2019-03-08T13:41:00.452Z,14.93
2019-03-08T13:43:31.087Z,14.84
2019-03-08T13:46:01.711Z,14.78
2019-03-08T13:48:33.255Z,14.89
2019-03-08T13:51:04.167Z,14.97
2019-03-08T13:53:34.614Z,15.21
2019-03-08T13:56:05.355Z,14.96
2019-03-08T13:58:36.184Z,15.02
2019-03-08T14:01:07.543Z,15.04
2019-03-08T14:03:38.165Z,15.15
2019-03-08T14:06:08.894Z,15.14
2019-03-08T14:08:39.424Z,15.05
2019-03-08T14:11:11.264Z,15.06
2019-03-08T14:13:42.025Z,14.90
2019-03-08T14:16:12.751Z,14.98
2019-03-08T14:18:43.488Z,14.97
2019-03-08T14:21:13.784Z,14.91
2019-03-08T14:23:44.235Z,14.77
2019-03-08T14:26:16.830Z,14.77
2019-03-08T14:28:47.130Z,14.86
2019-03-08T14:31:22.039Z,14.68
2019-03-08T14:33:52.502Z,14.89
2019-03-08T14:36:23.735Z,14.85
2019-03-08T14:38:54.474Z,14.75
2019-03-08T14:41:31.686Z,14.72
2019-03-08T14:44:12.839Z,14.71
2019-03-08T14:46:52.989Z,14.78
2019-03-08T14:49:24.352Z,14.65
2019-03-08T14:51:55.547Z,14.69
2019-03-08T14:54:27.350Z,14.62
2019-03-08T14:56:57.867Z,14.66
2019-03-08T14:59:28.178Z,14.57
2019-03-08T15:02:00.057Z,14.58
2019-03-08T15:04:33.146Z,14.45
2019-03-08T15:07:04.623Z,14.40
2019-03-08T15:09:35.771Z,14.40
2019-03-08T15:12:06.369Z,14.39
2019-03-08T15:14:36.997Z,14.26
2019-03-08T15:17:09.301Z,14.18
2019-03-08T15:19:40.289Z,14.19
2019-03-08T15:22:12.057Z,14.10
2019-03-08T15:24:42.690Z,14.12
2019-03-08T15:27:13.322Z,13.99
2019-03-08T15:29:54.248Z,13.97
2019-03-08T15:32:19.296Z,13.99
2019-03-08T15:34:50.746Z,13.89
2019-03-08T15:37:21.382Z,13.76
2019-03-08T15:39:52.319Z,13.75
2019-03-08T15:42:22.821Z,13.71
2019-03-08T15:44:53.476Z,13.60
2019-03-08T15:47:24.123Z,13.65
2019-03-08T15:49:54.532Z,13.45
2019-03-08T15:52:25.543Z,13.49
2019-03-08T15:54:59.751Z,13.44
2019-03-08T15:57:30.313Z,13.42
2019-03-08T16:00:00.737Z,13.39
2019-03-08T16:02:33.505Z,13.37
2019-03-08T16:05:04.433Z,13.33
2019-03-08T16:07:35.687Z,13.26
2019-03-08T16:10:08.078Z,13.17
2019-03-08T16:12:39.122Z,13.15
2019-03-08T16:15:10.455Z,13.15
2019-03-08T16:17:42.529Z,13.19
2019-03-08T16:20:14.769Z,13.15
2019-03-08T16:22:45.326Z,13.15
2019-03-08T16:25:16.705Z,13.09
2019-03-08T16:27:47.102Z,12.96
2019-03-08T16:30:24.388Z,12.95
2019-03-08T16:33:04.630Z,13.00
2019-03-08T16:35:51.943Z,12.91
2019-03-08T16:38:26.800Z,12.85
2019-03-08T16:41:02.059Z,12.68
2019-03-08T16:43:37.067Z,12.65
2019-03-08T16:46:20.678Z,12.50
2019-03-08T16:48:53.104Z,12.64
2019-03-08T16:51:30.297Z,12.51
2019-03-08T16:54:07.730Z,12.58
2019-03-08T16:56:43.104Z,12.47
2019-03-08T16:59:21.209Z,12.55
2019-03-08T17:02:08.701Z,12.49
2019-03-08T17:04:56.093Z,12.53
2019-03-08T17:07:31.239Z,12.41
2019-03-08T17:10:05.269Z,12.46
2019-03-08T17:12:37.671Z,12.28
2019-03-08T17:15:13.113Z,12.28
2019-03-08T17:17:57.773Z,12.24
2019-03-08T17:20:33.832Z,12.24
2019-03-08T17:23:05.997Z,12.16
2019-03-08T17:25:38.370Z,12.21
2019-03-08T17:28:13.300Z,12.15
2019-03-08T17:30:48.436Z,12.05
2019-03-08T17:33:23.279Z,12.05
2019-03-08T17:36:07.623Z,11.87
2019-03-08T17:38:44.027Z,11.93
2019-03-08T17:41:32.636Z,11.91
2019-03-08T17:44:17.196Z,11.84
2019-03-08T17:46:55.098Z,11.79
2019-03-08T17:49:30.028Z,11.77
2019-03-08T17:52:11.616Z,11.80
2019-03-08T17:54:43.989Z,11.79
2019-03-08T17:57:21.993Z,11.69
2019-03-08T17:59:53.954Z,11.64
2019-03-08T18:02:26.428Z,11.64
2019-03-08T18:05:02.692Z,11.85
2019-03-08T18:07:41.410Z,11.69
2019-03-08T18:10:23.807Z,11.63
2019-03-08T18:13:10.179Z,11.53
2019-03-08T18:15:57.073Z,11.34
2019-03-08T18:18:32.145Z,11.38
2019-03-08T18:21:04.332Z,11.40
2019-03-08T18:23:53.280Z,11.35
2019-03-08T18:26:44.118Z,11.31
2019-03-08T18:29:16.162Z,11.44
2019-03-08T18:31:53.725Z,11.15
2019-03-08T18:34:30.941Z,11.29
2019-03-08T18:37:08.957Z,11.24
2019-03-08T18:39:58.219Z,11.08
2019-03-08T18:42:32.939Z,11.03
2019-03-08T18:45:07.470Z,10.93
2019-03-08T18:47:42.906Z,10.94
2019-03-08T18:50:26.250Z,11.05
2019-03-08T18:53:14.718Z,11.04
2019-03-08T18:56:05.385Z,11.07
2019-03-08T18:58:46.664Z,11.00
2019-03-08T19:01:19.248Z,10.90
2019-03-08T19:04:00.417Z,10.90
2019-03-08T19:06:39.424Z,10.81
2019-03-08T19:09:11.408Z,10.83
2019-03-08T19:12:00.178Z,10.85
2019-03-08T19:14:34.281Z,10.74
2019-03-08T19:17:06.406Z,10.64
2019-03-08T19:19:51.093Z,10.45
2019-03-08T19:22:26.697Z,10.53
2019-03-08T19:24:59.040Z,10.62
2019-03-08T19:27:34.667Z,10.66
2019-03-08T19:30:11.602Z,10.71
2019-03-08T19:32:53.134Z,10.61
2019-03-08T19:35:28.596Z,10.46
2019-03-08T19:38:00.948Z,10.45
2019-03-08T19:40:35.154Z,10.14
2019-03-08T19:43:24.540Z,10.22
2019-03-08T19:46:32.835Z,10.14
2019-03-08T19:49:09.426Z,9.93
2019-03-08T19:51:54.395Z,9.98
2019-03-08T19:54:28.918Z,9.72
2019-03-08T19:57:07.769Z,9.69
2019-03-08T19:59:49.220Z,9.56
2019-03-08T20:02:23.724Z,9.50
2019-03-08T20:05:07.487Z,9.40
2019-03-08T20:07:55.116Z,9.32
2019-03-08T20:10:33.393Z,9.32
2019-03-08T20:13:12.146Z,9.39
2019-03-08T20:15:59.779Z,9.47
2019-03-08T20:18:49.723Z,9.58
2019-03-08T20:21:26.535Z,9.60
2019-03-08T20:24:08.737Z,9.58
2019-03-08T20:27:05.929Z,9.48
2019-03-08T20:29:45.920Z,9.59
2019-03-08T20:32:35.818Z,9.53
2019-03-08T20:35:22.623Z,9.53
2019-03-08T20:38:11.222Z,9.52
2019-03-08T20:40:43.548Z,9.53
2019-03-08T20:43:24.827Z,9.52
2019-03-08T20:46:01.390Z,9.57
2019-03-08T20:48:37.062Z,9.57
2019-03-08T20:51:11.477Z,9.67
2019-03-08T20:53:44.113Z,9.60
2019-03-08T20:56:23.059Z,9.48
2019-03-08T20:58:53.911Z,9.65
2019-03-08T21:01:30.848Z,9.51
2019-03-08T21:04:04.312Z,9.48
2019-03-08T21:06:37.062Z,9.43
2019-03-08T21:09:10.152Z,9.50
2019-03-08T21:11:42.626Z,9.58
2019-03-08T21:14:13.534Z,9.62
2019-03-08T21:16:46.828Z,9.54
2019-03-08T21:19:19.475Z,9.46
2019-03-08T21:21:50.165Z,9.55
2019-03-08T21:24:20.493Z,9.61
2019-03-08T21:26:51.122Z,9.29
2019-03-08T21:29:21.651Z,9.24
2019-03-08T21:31:53.200Z,9.35
2019-03-08T21:34:24.889Z,9.24
2019-03-08T21:36:55.489Z,9.20
2019-03-08T21:39:25.774Z,9.16
2019-03-08T21:41:56.210Z,9.31
2019-03-08T21:44:27.052Z,9.18
2019-03-08T21:46:57.513Z,9.17
2019-03-08T21:49:27.923Z,9.26
2019-03-08T21:51:59.067Z,9.21
2019-03-08T21:54:32.669Z,9.23
2019-03-08T21:57:03.505Z,9.21
2019-03-08T21:59:34.138Z,9.18
2019-03-08T22:02:04.974Z,9.30
2019-03-08T22:04:38.274Z,9.20
2019-03-08T22:07:09.611Z,9.24
2019-03-08T22:09:44.750Z,9.43
2019-03-08T22:12:15.382Z,9.26
2019-03-08T22:14:46.010Z,9.25
2019-03-08T22:17:16.643Z,9.26
2019-03-08T22:19:47.273Z,9.04
2019-03-08T22:22:17.906Z,9.22
2019-03-08T22:24:48.330Z,9.18
2019-03-08T22:27:18.963Z,9.29
2019-03-08T22:29:49.284Z,9.40
2019-03-08T22:32:19.713Z,9.35
2019-03-08T22:34:50.144Z,9.36
2019-03-08T22:37:20.639Z,9.29
2019-03-08T22:39:51.363Z,9.32
2019-03-08T22:42:22.030Z,9.18
2019-03-08T22:44:52.557Z,9.15
2019-03-08T22:47:25.653Z,9.19
2019-03-08T22:49:56.397Z,9.07
2019-03-08T22:52:28.555Z,9.17
2019-03-08T22:54:59.176Z,9.26
2019-03-08T22:57:30.012Z,9.25
2019-03-08T23:00:01.679Z,9.11
2019-03-08T23:02:34.142Z,9.00
2019-03-08T23:05:05.728Z,9.14
2019-03-08T23:07:47.977Z,9.05
2019-03-08T23:10:22.418Z,9.12
2019-03-08T23:12:52.949Z,9.09
2019-03-08T23:15:23.680Z,8.96
2019-03-08T23:17:54.214Z,9.02
2019-03-08T23:20:31.295Z,9.00
2019-03-08T23:23:03.462Z,8.88
2019-03-08T23:25:34.050Z,9.03
2019-03-08T23:28:12.401Z,9.01
2019-03-08T23:30:42.622Z,8.99
2019-03-08T23:33:13.046Z,8.90
2019-03-08T23:35:43.782Z,9.00
2019-03-08T23:38:14.415Z,9.04
2019-03-08T23:40:52.519Z,8.90
2019-03-08T23:43:24.601Z,8.89
2019-03-08T23:45:58.418Z,8.79
2019-03-08T23:48:28.918Z,8.81
2019-03-08T23:50:59.439Z,8.91
2019-03-08T23:53:30.486Z,8.85
2019-03-08T23:56:01.993Z,8.70
2019-03-08T23:58:32.543Z,8.80
